Search for airport 
image banner adimage banner adimage banner ad
image banner ad

36CL - Tri-City Hospital

Located in Oceanside, United States

ICAO - 36CL, IATA -

Data provided by Airmate  

General information

Coordinates: N33°11'7" W117°17'28"
Elevation is 260 feet MSL.
Magnetic variation is 13° East
View others Airports in California

Operational data

Special qualification required
Current time UTC:
Current local time:
Weather at : KCRQ - Mc Clellan-Palomar ( 6 km )
METAR: KCRQ 141053Z AUTO 00000KT 5SM BR OVC004 16/14 A2988 RMK AO2 SLP115 T01560139
TAF: KCRQ 141001Z 1410/1506 VRB03KT 5SM BR OVC003 FM141600 VRB04KT P6SM FEW006 FM141800 26009KT P6SM FEW200 FM150200 VRB04KT P6SM FEW200
View NOTAMs / SUP AIP / TFR affecting this airport [VIEW]
Communications frequencies: [VIEW]

Runways:

Airport contact information

Address: Oceanside United States

Satellite view of 36CL